createdAt,value
2023-01-11T00:00:50.229Z,0
2023-01-11T00:01:50.217Z,0
2023-01-11T00:02:50.197Z,0
2023-01-11T00:03:50.173Z,0
2023-01-11T00:04:50.491Z,0
2023-01-11T00:05:50.233Z,0
2023-01-11T00:06:50.619Z,0
2023-01-11T00:07:50.398Z,0
2023-01-11T00:08:50.346Z,0
2023-01-11T00:09:50.087Z,0
2023-01-11T00:10:50.293Z,0
2023-01-11T00:11:50.036Z,0
2023-01-11T00:12:50.012Z,0
2023-01-11T00:13:50.030Z,0
2023-01-11T00:14:50.028Z,0
2023-01-11T00:15:50.518Z,0
2023-01-11T00:16:50.443Z,0
2023-01-11T00:17:50.924Z,0
2023-01-11T00:18:50.645Z,0
2023-01-11T00:19:50.382Z,0
2023-01-11T00:20:50.933Z,0
2023-01-11T00:21:50.376Z,0
2023-01-11T00:22:50.818Z,0
2023-01-11T00:23:50.793Z,0
2023-01-11T00:24:50.531Z,0
2023-01-11T00:25:50.554Z,0
2023-01-11T00:26:50.253Z,0
2023-01-11T00:27:50.727Z,0
2023-01-11T00:28:50.724Z,0
2023-01-11T00:29:50.693Z,0
2023-01-11T00:30:50.469Z,0
2023-01-11T00:31:50.247Z,0
2023-01-11T00:32:50.635Z,0
2023-01-11T00:33:50.616Z,0
2023-01-11T00:34:50.134Z,0
2023-01-11T00:35:49.813Z,0
2023-01-11T00:36:50.626Z,0
2023-01-11T00:37:50.352Z,0
2023-01-11T00:38:50.297Z,0
2023-01-11T00:39:50.266Z,0
2023-01-11T00:40:50.491Z,0
2023-01-11T00:41:50.389Z,0
2023-01-11T00:42:50.503Z,0
2023-01-11T00:43:50.465Z,0
2023-01-11T00:44:50.183Z,0
2023-01-11T00:45:50.107Z,0
2023-01-11T00:46:50.128Z,0
2023-01-11T00:47:49.868Z,0
2023-01-11T00:48:50.359Z,0
2023-01-11T00:49:49.891Z,0
2023-01-11T00:50:50.075Z,0
2023-01-11T00:51:49.778Z,0
2023-01-11T00:52:50.119Z,0
2023-01-11T00:53:50.049Z,0
2023-01-11T00:54:49.736Z,0
2023-01-11T00:55:49.750Z,0
2023-01-11T00:56:49.688Z,0
2023-01-11T00:57:49.452Z,0
2023-01-11T00:58:50.192Z,0
2023-01-11T00:59:50.155Z,0
2023-01-11T01:00:50.146Z,0
2023-01-11T01:01:49.777Z,0
2023-01-11T01:02:50.066Z,0
2023-01-11T01:03:50.725Z,0
2023-01-11T01:04:51.018Z,0
2023-01-11T01:05:50.919Z,0
2023-01-11T01:06:50.920Z,0
2023-01-11T01:07:50.387Z,0
2023-01-11T01:08:50.691Z,0
2023-01-11T01:09:50.627Z,0
2023-01-11T01:10:50.585Z,0
2023-01-11T01:11:50.324Z,0
2023-01-11T01:12:50.525Z,0
2023-01-11T01:13:50.276Z,0
2023-01-11T01:14:50.598Z,0
2023-01-11T01:15:50.720Z,0
2023-01-11T01:16:50.739Z,0
2023-01-11T01:17:50.446Z,0
2023-01-11T01:18:50.450Z,0
2023-01-11T01:19:50.185Z,0
2023-01-11T01:20:50.400Z,0
2023-01-11T01:21:50.629Z,0
2023-01-11T01:22:50.619Z,0
2023-01-11T01:23:50.339Z,0
2023-01-11T01:24:50.458Z,0
2023-01-11T01:25:50.344Z,0
2023-01-11T01:26:50.284Z,0
2023-01-11T01:27:50.323Z,0
2023-01-11T01:28:50.261Z,0
2023-01-11T01:29:50.232Z,0
2023-01-11T01:30:50.235Z,0
2023-01-11T01:31:49.932Z,0
2023-01-11T01:32:50.188Z,0
2023-01-11T01:34:22.221Z,0
2023-01-11T01:34:50.210Z,0
2023-01-11T01:35:50.143Z,0
2023-01-11T01:36:50.146Z,0
2023-01-11T01:37:50.352Z,0
2023-01-11T01:38:50.116Z,0
2023-01-11T01:39:50.056Z,0
2023-01-11T01:40:50.286Z,0
2023-01-11T01:41:50.049Z,0
2023-01-11T01:42:49.728Z,0
2023-01-11T01:43:52.494Z,0
2023-01-11T01:44:50.116Z,0
2023-01-11T01:45:50.078Z,0
2023-01-11T01:46:50.181Z,0
2023-01-11T01:47:49.657Z,0
2023-01-11T01:48:50.139Z,0
2023-01-11T01:49:49.613Z,0
2023-01-11T01:50:50.141Z,0
2023-01-11T01:51:49.357Z,0
2023-01-11T01:52:49.815Z,0
2023-01-11T01:53:50.098Z,0
2023-01-11T01:54:49.841Z,0
2023-01-11T01:55:49.796Z,0
2023-01-11T01:56:50.095Z,0
2023-01-11T01:57:50.024Z,0
2023-01-11T01:58:49.704Z,0
2023-01-11T01:59:49.444Z,0
2023-01-11T02:00:49.440Z,0
2023-01-11T02:01:50.167Z,0
2023-01-11T02:02:50.172Z,0
2023-01-11T02:03:49.371Z,0
2023-01-11T02:04:49.730Z,0
2023-01-11T02:05:49.316Z,0
2023-01-11T02:06:50.090Z,0
2023-01-11T02:07:49.840Z,0
2023-01-11T02:08:49.520Z,0
2023-01-11T02:09:49.502Z,0
2023-01-11T02:10:49.763Z,0
2023-01-11T02:11:49.214Z,0
2023-01-11T02:12:49.799Z,0
2023-01-11T02:13:49.747Z,0
2023-01-11T02:14:49.688Z,0
2023-01-11T02:15:49.938Z,0
2023-01-11T02:16:49.393Z,0
2023-01-11T02:17:49.632Z,0
2023-01-11T02:18:49.127Z,0
2023-01-11T02:19:49.315Z,0
2023-01-11T02:20:49.558Z,0
2023-01-11T02:21:49.550Z,0
2023-01-11T02:22:49.298Z,0
2023-01-11T02:23:49.255Z,0
2023-01-11T02:24:48.764Z,0
2023-01-11T02:25:49.223Z,0
2023-01-11T02:26:49.220Z,0
2023-01-11T02:27:49.446Z,0
2023-01-11T02:28:49.509Z,0
2023-01-11T02:29:49.443Z,0
2023-01-11T02:30:49.126Z,0
2023-01-11T02:31:48.866Z,0
2023-01-11T02:32:48.862Z,0
2023-01-11T02:33:49.066Z,0
2023-01-11T02:34:49.063Z,0
2023-01-11T02:35:48.786Z,0
2023-01-11T02:36:49.276Z,0
2023-01-11T02:37:49.273Z,0
2023-01-11T02:38:48.713Z,0
2023-01-11T02:39:49.224Z,0
2023-01-11T02:40:48.965Z,0
2023-01-11T02:41:49.175Z,0
2023-01-11T02:42:48.944Z,0
2023-01-11T02:43:48.879Z,0
2023-01-11T02:44:48.958Z,0
2023-01-11T02:45:48.884Z,0
2023-01-11T02:46:49.103Z,0
2023-01-11T02:47:49.050Z,0
2023-01-11T02:48:48.810Z,0
2023-01-11T02:49:48.780Z,0
2023-01-11T02:50:48.496Z,0
2023-01-11T02:51:48.488Z,0
2023-01-11T02:52:48.731Z,0
2023-01-11T02:53:48.953Z,0
2023-01-11T02:54:48.441Z,0
2023-01-11T02:55:48.694Z,0
2023-01-11T02:56:48.917Z,0
2023-01-11T02:57:48.368Z,0
2023-01-11T02:58:48.641Z,0
2023-01-11T02:59:48.894Z,0
2023-01-11T03:00:48.912Z,0
2023-01-11T03:01:48.907Z,0
2023-01-11T03:02:48.729Z,0
2023-01-11T03:03:48.771Z,0
2023-01-11T03:04:48.573Z,0
2023-01-11T03:05:48.517Z,0
2023-01-11T03:06:48.826Z,0
2023-01-11T03:07:48.191Z,0
2023-01-11T03:08:48.452Z,0
2023-01-11T03:09:48.156Z,0
2023-01-11T03:10:48.406Z,0
2023-01-11T03:11:48.637Z,0
2023-01-11T03:12:48.599Z,0
2023-01-11T03:13:48.599Z,0
2023-01-11T03:14:48.345Z,0
2023-01-11T03:15:48.711Z,0
2023-01-11T03:16:49.553Z,0
2023-01-11T03:17:49.527Z,0
2023-01-11T03:18:48.928Z,0
2023-01-11T03:19:48.914Z,0
2023-01-11T03:20:49.445Z,0
2023-01-11T03:21:49.402Z,0
2023-01-11T03:22:48.640Z,0
2023-01-11T03:23:49.105Z,0
2023-01-11T03:24:49.412Z,0
2023-01-11T03:25:49.069Z,0
2023-01-11T03:26:49.053Z,0
2023-01-11T03:27:49.037Z,0
2023-01-11T03:28:49.014Z,0
2023-01-11T03:29:49.256Z,0
2023-01-11T03:30:48.729Z,0
2023-01-11T03:31:49.374Z,0
2023-01-11T03:32:49.010Z,0
2023-01-11T03:49:47.837Z,0
2023-01-11T03:50:47.380Z,0
2023-01-11T03:51:47.112Z,0
2023-01-11T03:52:47.631Z,0
2023-01-11T03:53:47.541Z,0
2023-01-11T03:54:47.051Z,0
2023-01-11T03:55:47.014Z,0
2023-01-11T03:56:47.238Z,0
2023-01-11T03:57:47.466Z,0
2023-01-11T03:58:47.464Z,0
2023-01-11T03:59:47.179Z,0
2023-01-11T04:00:47.073Z,0
2023-01-11T04:01:47.403Z,0
2023-01-11T04:02:47.133Z,0
2023-01-11T04:03:47.366Z,0
2023-01-11T04:04:47.184Z,0
2023-01-11T04:05:47.426Z,0
2023-01-11T04:06:47.605Z,0
2023-01-11T04:07:46.772Z,0
2023-01-11T04:08:47.272Z,0
2023-01-11T04:09:46.500Z,0
2023-01-11T04:10:47.239Z,0
2023-01-11T04:11:46.708Z,0
2023-01-11T04:12:46.932Z,0
2023-01-11T04:13:47.118Z,0
2023-01-11T04:14:47.333Z,0
2023-01-11T04:15:46.890Z,0
2023-01-11T04:16:46.747Z,0
2023-01-11T04:17:46.853Z,0
2023-01-11T04:18:47.083Z,0
2023-01-11T04:19:47.146Z,0
2023-01-11T04:20:46.801Z,0
2023-01-11T04:21:47.131Z,0
2023-01-11T04:22:46.505Z,0
2023-01-11T04:23:46.748Z,0
2023-01-11T04:24:46.815Z,0
2023-01-11T04:25:46.717Z,0
2023-01-11T04:26:46.676Z,0
2023-01-11T04:27:46.668Z,0
2023-01-11T04:28:46.903Z,0
2023-01-11T04:29:46.647Z,0
2023-01-11T04:30:46.607Z,0
2023-01-11T04:31:47.119Z,0
2023-01-11T04:32:46.590Z,0
2023-01-11T04:33:46.585Z,0
2023-01-11T04:34:46.587Z,0
2023-01-11T04:35:46.785Z,0
2023-01-11T04:36:46.769Z,0
2023-01-11T04:37:46.867Z,0
2023-01-11T04:38:46.489Z,0
2023-01-11T04:39:46.463Z,0
2023-01-11T04:40:46.177Z,0
2023-01-11T04:41:46.681Z,0
2023-01-11T04:42:46.470Z,0
2023-01-11T04:43:46.395Z,0
2023-01-11T04:44:46.692Z,0
2023-01-11T04:45:46.552Z,0
2023-01-11T04:46:46.070Z,0
2023-01-11T04:47:46.602Z,0
2023-01-11T04:48:46.488Z,0
2023-01-11T04:49:46.020Z,0
2023-01-11T04:50:46.459Z,0
2023-01-11T04:51:46.504Z,0
2023-01-11T04:52:46.233Z,0
2023-01-11T04:53:46.555Z,0
2023-01-11T04:54:46.548Z,0
2023-01-11T04:55:46.426Z,0
2023-01-11T04:56:46.413Z,0
2023-01-11T04:57:46.387Z,0
2023-01-11T04:58:46.123Z,0
2023-01-11T04:59:46.357Z,0
2023-01-11T05:00:46.871Z,0
2023-01-11T05:01:46.479Z,0
2023-01-11T05:02:46.182Z,0
2023-01-11T05:03:46.300Z,0
2023-01-11T05:04:46.363Z,0
2023-01-11T05:05:46.668Z,0
2023-01-11T05:06:46.079Z,0
2023-01-11T05:07:46.386Z,0
2023-01-11T05:08:46.572Z,0
2023-01-11T05:09:46.671Z,0
2023-01-11T05:10:46.363Z,0
2023-01-11T05:11:46.505Z,0
2023-01-11T05:12:46.480Z,0
2023-01-11T05:13:46.510Z,0
2023-01-11T05:14:46.455Z,0
2023-01-11T05:15:45.919Z,0
2023-01-11T05:16:46.411Z,0
2023-01-11T05:17:46.160Z,0
2023-01-11T05:18:46.113Z,0
2023-01-11T05:19:46.392Z,0
2023-01-11T05:20:46.088Z,0
2023-01-11T05:21:45.810Z,0
2023-01-11T05:22:46.057Z,0
2023-01-11T05:23:46.038Z,0
2023-01-11T05:24:46.267Z,0
2023-01-11T05:25:46.355Z,0
2023-01-11T05:26:45.985Z,0
2023-01-11T05:27:46.278Z,0
2023-01-11T05:28:46.197Z,0
2023-01-11T05:29:45.943Z,0
2023-01-11T05:30:45.653Z,0
2023-01-11T05:31:46.131Z,0
2023-01-11T05:32:45.887Z,0
2023-01-11T05:33:45.630Z,0
2023-01-11T05:34:45.863Z,0
2023-01-11T05:35:45.838Z,0
2023-01-11T05:36:45.570Z,0
2023-01-11T05:37:45.528Z,0
2023-01-11T05:38:45.794Z,0
2023-01-11T05:39:45.531Z,0
2023-01-11T05:40:45.751Z,0
2023-01-11T05:41:46.107Z,0
2023-01-11T05:42:45.715Z,0
2023-01-11T05:43:45.691Z,0
2023-01-11T05:44:45.747Z,0
2023-01-11T05:45:45.752Z,0
2023-01-11T05:46:45.889Z,0
2023-01-11T05:47:45.891Z,0
2023-01-11T05:48:45.613Z,0
2023-01-11T05:49:45.884Z,0
2023-01-11T05:50:45.583Z,0
2023-01-11T05:51:45.558Z,0
2023-01-11T05:52:45.542Z,0
2023-01-11T05:53:45.533Z,0
2023-01-11T05:54:45.761Z,0
2023-01-11T05:55:45.471Z,0
2023-01-11T05:56:45.485Z,0
2023-01-11T05:57:45.784Z,0
2023-01-11T05:58:45.417Z,0
2023-01-11T05:59:45.684Z,0
2023-01-11T06:00:45.638Z,0
2023-01-11T06:01:45.684Z,0
2023-01-11T06:02:46.084Z,0
2023-01-11T06:03:45.335Z,0
2023-01-11T06:04:45.317Z,0
2023-01-11T06:05:47.400Z,0
2023-01-11T06:06:45.821Z,0
2023-01-11T06:07:45.270Z,0
2023-01-11T06:08:45.893Z,0
2023-01-11T06:09:45.878Z,0
2023-01-11T06:10:45.339Z,0
2023-01-11T06:11:45.583Z,0
2023-01-11T06:12:45.308Z,0
2023-01-11T06:13:45.896Z,0
2023-01-11T06:14:45.284Z,0
2023-01-11T06:15:45.267Z,0
2023-01-11T06:16:45.754Z,0
2023-01-11T06:17:45.215Z,0
2023-01-11T06:18:45.219Z,0
2023-01-11T06:19:45.431Z,0
2023-01-11T06:20:45.420Z,0
2023-01-11T06:21:45.648Z,0
2023-01-11T06:22:45.641Z,0
2023-01-11T06:23:45.683Z,0
2023-01-11T06:24:46.003Z,0
2023-01-11T06:25:47.810Z,0
2023-01-11T06:26:45.982Z,0
2023-01-11T06:27:45.707Z,0
2023-01-11T06:28:45.730Z,0
2023-01-11T06:29:46.289Z,0
2023-01-11T06:30:46.145Z,0
2023-01-11T06:31:45.895Z,0
2023-01-11T06:32:46.117Z,0
2023-01-11T06:33:45.873Z,0
2023-01-11T06:34:45.833Z,0
2023-01-11T06:35:45.548Z,4
2023-01-11T06:36:46.055Z,0
2023-01-11T06:37:46.031Z,4
2023-01-11T06:38:45.790Z,0
2023-01-11T06:39:45.477Z,4
2023-01-11T06:40:45.749Z,4
2023-01-11T06:41:45.712Z,4
2023-01-11T06:42:45.953Z,4
2023-01-11T06:43:45.686Z,4
2023-01-11T06:44:45.649Z,4
2023-01-11T06:45:46.093Z,4
2023-01-11T06:46:45.776Z,8
2023-01-11T06:47:45.608Z,8
2023-01-11T06:48:45.828Z,12
2023-01-11T06:49:45.613Z,12
2023-01-11T06:50:46.029Z,12
2023-01-11T06:51:45.545Z,16
2023-01-11T06:52:45.508Z,16
2023-01-11T06:53:45.766Z,20
2023-01-11T06:54:45.550Z,24
2023-01-11T06:55:45.721Z,24
2023-01-11T06:56:45.482Z,32
2023-01-11T06:57:45.468Z,36
2023-01-11T06:58:49.202Z,40
2023-01-11T06:59:46.185Z,44
2023-01-11T07:00:45.874Z,52
2023-01-11T07:01:46.245Z,52
2023-01-11T07:02:45.347Z,56
2023-01-11T07:03:45.642Z,60
2023-01-11T07:04:45.187Z,56
2023-01-11T07:05:45.283Z,64
2023-01-11T07:06:45.514Z,68
2023-01-11T07:07:45.258Z,64
2023-01-11T07:08:45.511Z,72
2023-01-11T07:09:45.224Z,80
2023-01-11T07:10:45.456Z,88
2023-01-11T07:11:45.441Z,96
2023-01-11T07:12:45.434Z,100
2023-01-11T07:13:45.162Z,108
2023-01-11T07:14:45.129Z,116
2023-01-11T07:15:45.666Z,128
2023-01-11T07:16:45.380Z,140
2023-01-11T07:17:45.490Z,148
2023-01-11T07:18:47.139Z,164
2023-01-11T07:19:45.059Z,172
2023-01-11T07:20:45.291Z,180
2023-01-11T07:21:45.021Z,184
2023-01-11T07:22:44.767Z,204
2023-01-11T07:23:44.973Z,220
2023-01-11T07:24:47.005Z,240
2023-01-11T07:25:45.235Z,252
2023-01-11T07:26:46.360Z,272
2023-01-11T07:27:45.905Z,280
2023-01-11T07:28:45.890Z,292
2023-01-11T07:29:46.139Z,308
2023-01-11T07:31:04.984Z,328
2023-01-11T07:31:46.458Z,336
2023-01-11T07:32:45.830Z,360
2023-01-11T07:33:46.160Z,372
2023-01-11T07:34:46.395Z,396
2023-01-11T07:35:46.015Z,416
2023-01-11T07:36:45.772Z,436
2023-01-11T07:37:46.022Z,448
2023-01-11T07:38:45.982Z,440
2023-01-11T07:39:50.995Z,452
2023-01-11T07:40:45.978Z,468
2023-01-11T07:41:46.498Z,520
2023-01-11T07:42:45.684Z,536
2023-01-11T07:43:45.900Z,552
2023-01-11T07:44:45.614Z,572
2023-01-11T07:45:53.307Z,600
2023-01-11T07:46:46.079Z,648
2023-01-11T07:47:45.585Z,692
2023-01-11T07:48:45.819Z,728
2023-01-11T07:49:45.900Z,760
2023-01-11T07:50:49.099Z,788
2023-01-11T07:51:45.289Z,808
2023-01-11T07:52:45.742Z,832
2023-01-11T07:53:45.730Z,852
2023-01-11T07:54:45.222Z,868
2023-01-11T07:55:45.443Z,896
2023-01-11T07:56:45.429Z,928
2023-01-11T07:57:45.414Z,956
2023-01-11T07:58:45.399Z,972
2023-01-11T07:59:45.369Z,992
2023-01-11T08:00:45.394Z,976
2023-01-11T08:01:46.393Z,904
2023-01-11T08:02:45.938Z,1064
2023-01-11T08:03:45.833Z,1152
2023-01-11T08:04:45.555Z,1164
2023-01-11T08:05:45.654Z,1156
2023-01-11T08:06:45.526Z,1200
2023-01-11T08:07:44.980Z,1252
2023-01-11T08:08:45.490Z,1308
2023-01-11T08:09:45.226Z,1344
2023-01-11T08:10:48.216Z,1372
2023-01-11T08:11:45.422Z,1384
2023-01-11T08:12:45.562Z,1424
2023-01-11T08:13:45.415Z,1452
2023-01-11T08:14:45.218Z,1484
2023-01-11T08:15:45.629Z,1508
2023-01-11T08:16:45.363Z,1536
2023-01-11T08:17:45.097Z,1564
2023-01-11T08:18:45.051Z,1580
2023-01-11T08:19:45.053Z,1604
2023-01-11T08:20:45.053Z,1656
2023-01-11T08:21:45.390Z,1696
2023-01-11T08:22:45.255Z,1732
2023-01-11T08:23:44.967Z,1776
2023-01-11T08:24:45.247Z,1820
2023-01-11T08:25:44.983Z,1856
2023-01-11T08:26:45.432Z,1884
2023-01-11T08:27:47.575Z,1904
2023-01-11T08:28:44.633Z,1904
2023-01-11T08:29:44.966Z,1868
2023-01-11T08:30:45.083Z,1888
2023-01-11T08:31:44.837Z,1924
2023-01-11T08:32:45.092Z,1916
2023-01-11T08:33:45.075Z,1944
2023-01-11T08:34:44.541Z,1972
2023-01-11T08:35:45.081Z,1984
2023-01-11T08:36:44.782Z,1992
2023-01-11T08:37:45.149Z,1984
2023-01-11T08:38:45.002Z,1968
2023-01-11T08:39:44.700Z,1996
2023-01-11T08:40:44.705Z,2064
2023-01-11T08:41:44.956Z,2092
2023-01-11T08:42:44.655Z,2116
2023-01-11T08:43:44.920Z,2156
2023-01-11T08:44:44.885Z,2176
2023-01-11T08:45:44.871Z,2212
2023-01-11T08:46:44.499Z,2248
2023-01-11T08:47:44.570Z,2288
2023-01-11T08:48:44.875Z,2320
2023-01-11T08:49:44.809Z,2336
2023-01-11T08:50:44.608Z,2312
2023-01-11T08:51:44.521Z,2332
2023-01-11T08:52:44.496Z,2328
2023-01-11T08:53:45.249Z,2428
2023-01-11T08:54:45.089Z,2412
2023-01-11T08:55:45.062Z,2516
2023-01-11T08:56:44.531Z,2548
2023-01-11T08:57:45.495Z,2596
2023-01-11T08:58:44.758Z,2412
2023-01-11T08:59:44.740Z,2568
2023-01-11T09:00:44.475Z,2612
2023-01-11T09:01:45.314Z,2724
2023-01-11T09:02:45.626Z,2788
2023-01-11T09:03:44.697Z,2820
2023-01-11T09:04:44.693Z,2848
2023-01-11T09:05:44.657Z,2896
2023-01-11T09:06:44.408Z,2900
2023-01-11T09:07:44.677Z,3032
2023-01-11T09:08:44.573Z,3088
2023-01-11T09:09:45.074Z,3136
2023-01-11T09:10:44.583Z,3172
2023-01-11T09:11:44.831Z,3200
2023-01-11T09:12:44.308Z,3120
2023-01-11T09:13:44.773Z,3036
2023-01-11T09:14:44.303Z,3272
2023-01-11T09:15:44.631Z,3384
2023-01-11T09:16:44.734Z,3280
2023-01-11T09:17:44.751Z,3364
2023-01-11T09:18:44.214Z,3416
2023-01-11T09:19:44.694Z,3356
2023-01-11T09:20:44.675Z,3316
2023-01-11T09:21:44.150Z,3512
2023-01-11T09:22:44.648Z,3408
2023-01-11T09:23:44.362Z,3508
2023-01-11T09:24:44.377Z,3292
2023-01-11T09:25:44.757Z,3336
2023-01-11T09:26:44.845Z,3332
2023-01-11T09:27:44.559Z,3240
2023-01-11T09:28:44.276Z,3440
2023-01-11T09:29:45.136Z,3404
2023-01-11T09:30:44.547Z,3400
2023-01-11T09:31:44.218Z,3276
2023-01-11T09:32:44.226Z,3436
2023-01-11T09:33:44.468Z,3540
2023-01-11T09:34:46.599Z,3328
2023-01-11T09:35:43.931Z,3252
2023-01-11T09:36:44.158Z,3272
2023-01-11T09:37:44.160Z,3492
2023-01-11T09:38:44.403Z,3532
2023-01-11T09:39:44.139Z,3596
2023-01-11T09:40:43.848Z,3516
2023-01-11T09:41:44.426Z,3700
2023-01-11T09:42:44.436Z,3716
2023-01-11T09:43:45.002Z,3656
2023-01-11T09:44:44.038Z,3580
2023-01-11T09:45:44.021Z,3652
2023-01-11T09:46:44.256Z,3696
2023-01-11T09:47:44.034Z,3764
2023-01-11T09:48:44.260Z,3540
2023-01-11T09:49:44.243Z,3620
2023-01-11T09:50:43.975Z,3656
2023-01-11T09:51:43.963Z,3840
2023-01-11T09:52:43.918Z,3856
2023-01-11T09:53:43.928Z,3904
2023-01-11T09:54:44.162Z,3912
2023-01-11T09:55:44.140Z,3972
2023-01-11T09:56:43.872Z,3960
2023-01-11T09:57:44.607Z,3932
2023-01-11T09:58:44.331Z,3732
2023-01-11T09:59:44.291Z,3864
2023-01-11T10:00:44.073Z,3816
2023-01-11T10:01:44.261Z,3812
2023-01-11T10:02:44.281Z,3820
2023-01-11T10:03:44.229Z,3808
2023-01-11T10:04:44.185Z,3660
2023-01-11T10:05:43.948Z,3620
2023-01-11T10:06:43.941Z,3800
2023-01-11T10:07:43.678Z,3704
2023-01-11T10:18:53.278Z,4592
2023-01-11T10:19:47.649Z,4828
2023-01-11T10:20:38.697Z,4972
2023-01-11T10:21:38.613Z,5240
2023-01-11T10:22:38.353Z,5080
2023-01-11T10:23:38.345Z,5108
2023-01-11T10:24:38.335Z,4960
2023-01-11T10:25:38.332Z,4888
2023-01-11T10:26:38.453Z,4844
2023-01-11T10:27:38.610Z,4760
2023-01-11T10:28:38.048Z,4536
2023-01-11T10:29:38.845Z,4476
2023-01-11T10:30:39.540Z,4424
2023-01-11T10:31:38.329Z,4528
2023-01-11T10:32:38.185Z,4604
2023-01-11T10:33:38.472Z,4660
2023-01-11T10:34:38.162Z,4588
2023-01-11T10:35:38.224Z,4628
2023-01-11T10:36:38.412Z,4676
2023-01-11T10:37:38.370Z,4668
2023-01-11T10:38:38.112Z,4756
2023-01-11T10:39:38.262Z,4864
2023-01-11T10:40:38.143Z,4984
2023-01-11T10:41:37.892Z,5100
2023-01-11T10:42:38.154Z,5216
2023-01-11T10:43:38.088Z,5252
2023-01-11T10:44:38.431Z,5252
2023-01-11T10:45:38.455Z,5236
2023-01-11T10:46:37.784Z,5252
2023-01-11T10:47:38.283Z,5212
2023-01-11T10:48:38.034Z,5128
2023-01-11T10:49:41.355Z,4804
2023-01-11T10:50:38.243Z,4656
2023-01-11T10:51:37.990Z,4756
2023-01-11T10:52:38.314Z,4596
2023-01-11T10:53:38.183Z,4736
2023-01-11T10:54:37.943Z,4340
2023-01-11T10:55:37.674Z,4224
2023-01-11T10:57:02.092Z,4108
2023-01-11T10:57:38.305Z,4056
2023-01-11T10:58:38.137Z,3972
2023-01-11T10:59:38.029Z,4048
2023-01-11T11:00:38.162Z,4256
2023-01-11T11:01:37.958Z,4196
2023-01-11T11:02:38.177Z,4256
2023-01-11T11:03:38.076Z,4220
2023-01-11T11:04:37.613Z,4284
2023-01-11T11:05:38.525Z,4752
2023-01-11T11:06:38.289Z,4608
2023-01-11T11:07:38.003Z,4600
2023-01-11T11:08:38.923Z,4620
2023-01-11T11:09:37.700Z,4360
2023-01-11T11:10:37.715Z,4336
2023-01-11T11:11:38.237Z,4572
2023-01-11T11:12:37.680Z,4720
2023-01-11T11:13:37.641Z,4800
2023-01-11T11:14:37.972Z,5068
2023-01-11T11:15:37.953Z,5120
2023-01-11T11:16:38.207Z,5160
2023-01-11T11:17:37.965Z,5140
2023-01-11T11:18:37.567Z,5060
2023-01-11T11:19:37.576Z,5092
2023-01-11T11:20:37.592Z,4928
2023-01-11T11:21:37.337Z,4884
2023-01-11T11:22:37.508Z,4824
2023-01-11T11:23:37.531Z,4700
2023-01-11T11:24:37.482Z,4656
2023-01-11T11:25:37.726Z,4620
2023-01-11T11:26:37.279Z,4528
2023-01-11T11:27:37.803Z,4564
2023-01-11T11:28:37.740Z,4468
2023-01-11T11:29:37.413Z,4140
2023-01-11T11:30:37.722Z,3768
2023-01-11T11:31:37.927Z,3564
2023-01-11T11:32:40.451Z,3436
2023-01-11T11:33:37.680Z,3348
2023-01-11T11:34:37.095Z,3216
2023-01-11T11:35:37.656Z,3140
2023-01-11T11:36:37.063Z,3068
2023-01-11T11:37:37.324Z,3048
2023-01-11T11:38:37.539Z,3076
2023-01-11T11:39:37.603Z,2952
2023-01-11T11:40:37.538Z,2800
2023-01-11T11:41:37.511Z,2760
2023-01-11T11:42:37.001Z,2792
2023-01-11T11:43:37.223Z,2852
2023-01-11T11:44:37.472Z,2900
2023-01-11T11:45:37.636Z,2968
2023-01-11T11:46:37.067Z,3000
2023-01-11T11:47:37.163Z,2912
2023-01-11T11:48:37.181Z,2764
2023-01-11T11:49:37.863Z,2624
2023-01-11T11:50:51.814Z,2464
2023-01-11T11:51:37.082Z,2428
2023-01-11T11:52:36.896Z,2540
2023-01-11T11:53:37.092Z,2712
2023-01-11T11:54:37.083Z,2824
2023-01-11T11:55:37.346Z,2748
2023-01-11T11:56:37.029Z,2564
2023-01-11T11:57:37.262Z,2468
2023-01-11T11:58:37.018Z,2460
2023-01-11T11:59:37.256Z,2476
2023-01-11T12:00:36.956Z,2512
2023-01-11T12:01:36.686Z,2568
2023-01-11T12:02:37.137Z,2588
2023-01-11T12:03:37.166Z,2700
2023-01-11T12:04:36.900Z,2816
2023-01-11T12:05:36.982Z,2804
2023-01-11T12:06:36.886Z,2748
2023-01-11T12:07:56.012Z,2584
2023-01-11T12:08:36.572Z,2476
2023-01-11T12:09:37.179Z,2296
2023-01-11T12:10:37.079Z,2232
2023-01-11T12:11:37.149Z,2224
2023-01-11T12:12:37.115Z,2164
2023-01-11T12:13:36.829Z,2044
2023-01-11T12:14:36.498Z,1888
2023-01-11T12:15:36.523Z,1800
2023-01-11T12:16:36.995Z,1700
2023-01-11T12:17:36.980Z,1560
2023-01-11T12:18:36.951Z,1428
2023-01-11T12:19:36.417Z,1348
2023-01-11T12:20:36.929Z,1272
2023-01-11T12:21:36.951Z,1268
2023-01-11T12:22:36.888Z,1256
2023-01-11T12:23:36.863Z,1252
2023-01-11T12:24:36.862Z,1264
2023-01-11T12:25:36.116Z,1256
2023-01-11T12:26:36.334Z,1232
2023-01-11T12:27:36.596Z,1204
2023-01-11T12:28:36.537Z,1224
2023-01-11T12:29:36.273Z,1276
2023-01-11T12:30:36.816Z,1312
2023-01-11T12:31:36.513Z,1292
2023-01-11T12:32:36.219Z,1244
2023-01-11T12:33:36.216Z,1216
2023-01-11T12:34:36.711Z,1196
2023-01-11T12:35:36.432Z,1160
2023-01-11T12:36:36.670Z,1112
2023-01-11T12:37:36.448Z,1044
2023-01-11T12:38:36.650Z,1016
2023-01-11T12:39:36.665Z,988
2023-01-11T12:40:36.628Z,1000
2023-01-11T12:41:36.362Z,1052
2023-01-11T12:42:36.592Z,1064
2023-01-11T12:43:36.610Z,980
2023-01-11T12:44:36.320Z,964
2023-01-11T12:45:36.381Z,932
2023-01-11T12:46:36.330Z,924
2023-01-11T12:47:38.539Z,908
2023-01-11T12:48:35.994Z,872
2023-01-11T12:49:36.022Z,864
2023-01-11T12:50:36.453Z,888
2023-01-11T12:51:36.551Z,900
2023-01-11T12:52:36.779Z,928
2023-01-11T12:53:36.236Z,940
2023-01-11T12:54:36.191Z,932
2023-01-11T12:55:36.401Z,908
2023-01-11T12:56:36.143Z,904
2023-01-11T12:57:36.164Z,920
2023-01-11T12:58:36.145Z,940
2023-01-11T12:59:36.361Z,936
2023-01-11T13:00:36.321Z,940
2023-01-11T13:01:36.343Z,948
2023-01-11T13:02:36.383Z,964
2023-01-11T13:03:36.047Z,964
2023-01-11T13:04:36.261Z,980
2023-01-11T13:05:36.019Z,992
2023-01-11T13:06:36.008Z,980
2023-01-11T13:07:35.949Z,956
2023-01-11T13:08:36.192Z,928
2023-01-11T13:09:36.007Z,956
2023-01-11T13:10:35.649Z,948
2023-01-11T13:11:35.682Z,924
2023-01-11T13:12:36.133Z,912
2023-01-11T13:13:35.623Z,932
2023-01-11T13:14:35.868Z,968
2023-01-11T13:15:39.208Z,1020
2023-01-11T13:16:36.120Z,1032
2023-01-11T13:17:35.789Z,1032
2023-01-11T13:18:36.093Z,1036
2023-01-11T13:19:35.778Z,1056
2023-01-11T13:21:02.980Z,1064
2023-01-11T13:21:35.750Z,1088
2023-01-11T13:22:35.722Z,1112
2023-01-11T13:23:35.729Z,1156
2023-01-11T13:24:36.012Z,1180
2023-01-11T13:25:35.714Z,1140
2023-01-11T13:26:36.030Z,1112
2023-01-11T13:27:35.637Z,1064
2023-01-11T13:28:35.633Z,1016
2023-01-11T13:29:35.440Z,968
2023-01-11T13:30:35.803Z,896
2023-01-11T13:31:35.696Z,900
2023-01-11T13:32:37.395Z,852
2023-01-11T13:33:35.536Z,844
2023-01-11T13:34:35.777Z,836
2023-01-11T13:35:35.262Z,848
2023-01-11T13:36:35.753Z,924
2023-01-11T13:37:35.517Z,876
2023-01-11T13:38:37.250Z,864
2023-01-11T13:39:35.297Z,908
2023-01-11T13:40:35.218Z,836
2023-01-11T13:41:35.738Z,888
2023-01-11T13:42:35.422Z,912
2023-01-11T13:43:35.643Z,896
2023-01-11T13:44:37.427Z,932
2023-01-11T13:45:35.518Z,984
2023-01-11T13:46:35.931Z,1120
2023-01-11T13:47:35.651Z,1156
2023-01-11T13:48:35.586Z,1172
2023-01-11T13:49:35.299Z,1224
2023-01-11T13:50:35.348Z,1208
2023-01-11T13:51:35.298Z,1204
2023-01-11T13:52:35.288Z,1208
2023-01-11T13:53:34.976Z,1232
2023-01-11T13:54:34.973Z,1204
2023-01-11T13:55:35.243Z,1200
2023-01-11T13:56:35.456Z,1200
2023-01-11T13:57:35.511Z,1252
2023-01-11T13:58:36.912Z,1184
2023-01-11T13:59:34.960Z,1072
2023-01-11T14:00:35.407Z,944
2023-01-11T14:01:35.147Z,920
2023-01-11T14:02:37.379Z,932
2023-01-11T14:03:35.671Z,920
2023-01-11T14:04:34.843Z,856
2023-01-11T14:05:35.351Z,860
2023-01-11T14:06:34.818Z,876
2023-01-11T14:07:35.146Z,840
2023-01-11T14:08:36.382Z,820
2023-01-11T14:09:35.318Z,792
2023-01-11T14:10:35.272Z,792
2023-01-11T14:11:34.961Z,768
2023-01-11T14:12:34.980Z,732
2023-01-11T14:13:35.251Z,752
2023-01-11T14:14:37.335Z,724
2023-01-11T14:15:35.244Z,708
2023-01-11T14:16:34.898Z,656
2023-01-11T14:17:35.175Z,624
2023-01-11T14:18:34.857Z,588
2023-01-11T14:19:35.135Z,552
2023-01-11T14:20:35.206Z,564
2023-01-11T14:21:34.814Z,552
2023-01-11T14:22:35.059Z,552
2023-01-11T14:23:34.531Z,524
2023-01-11T14:24:34.776Z,472
2023-01-11T14:25:34.762Z,480
2023-01-11T14:26:34.495Z,476
2023-01-11T14:27:34.719Z,524
2023-01-11T14:28:35.015Z,528
2023-01-11T14:29:35.108Z,516